createdAt,value
2023-05-10T00:02:07.075Z,3.20
2023-05-10T00:05:10.684Z,3.00
2023-05-10T00:08:13.463Z,3.47
2023-05-10T00:11:16.203Z,3.10
2023-05-10T00:14:19.302Z,2.88
2023-05-10T00:17:23.450Z,2.78
2023-05-10T00:20:26.228Z,3.30
2023-05-10T00:23:29.030Z,3.10
2023-05-10T00:26:31.825Z,2.88
2023-05-10T00:29:34.838Z,2.63
2023-05-10T00:32:39.098Z,3.00
2023-05-10T00:35:42.010Z,2.80
2023-05-10T00:38:45.673Z,3.22
2023-05-10T00:41:48.417Z,2.75
2023-05-10T00:44:52.152Z,2.40
2023-05-10T00:47:57.049Z,2.50
2023-05-10T00:51:00.015Z,2.67
2023-05-10T00:54:02.839Z,3.03
2023-05-10T00:57:06.108Z,3.10
2023-05-10T01:00:10.740Z,2.13
2023-05-10T01:03:15.385Z,2.50
2023-05-10T01:06:18.218Z,2.72
2023-05-10T01:09:22.114Z,2.53
2023-05-10T01:12:25.071Z,2.60
2023-05-10T01:15:28.901Z,2.53
2023-05-10T01:18:35.188Z,2.80
2023-05-10T01:21:45.082Z,2.50
2023-05-10T01:25:24.087Z,2.53
2023-05-10T01:28:49.331Z,3.05
2023-05-10T01:32:12.070Z,2.45
2023-05-10T01:35:20.248Z,2.70
2023-05-10T01:38:31.671Z,2.70
2023-05-10T01:41:43.034Z,2.58
2023-05-10T01:44:56.198Z,2.33
2023-05-10T01:48:08.275Z,2.80
2023-05-10T01:51:12.752Z,2.55
2023-05-10T01:54:17.624Z,2.50
2023-05-10T01:57:22.296Z,2.53
2023-05-10T02:00:26.305Z,2.70
2023-05-10T02:03:32.143Z,2.50
2023-05-10T02:06:36.181Z,2.53
2023-05-10T02:09:40.129Z,2.42
2023-05-10T02:12:45.257Z,2.72
2023-05-10T02:15:50.151Z,2.60
2023-05-10T02:18:55.725Z,2.50
2023-05-10T02:22:01.412Z,2.40
2023-05-10T02:25:06.157Z,2.40
2023-05-10T02:28:10.067Z,2.50
2023-05-10T02:31:13.546Z,2.47
2023-05-10T02:34:17.801Z,2.80
2023-05-10T02:37:23.474Z,2.45
2023-05-10T02:40:28.871Z,2.35
2023-05-10T02:43:35.339Z,2.63
2023-05-10T02:46:38.871Z,2.30
2023-05-10T02:49:43.318Z,2.08
2023-05-10T02:52:49.025Z,2.70
2023-05-10T02:55:54.848Z,2.78
2023-05-10T02:58:57.714Z,2.50
2023-05-10T03:02:01.115Z,2.42
2023-05-10T03:05:05.697Z,2.50
2023-05-10T03:08:08.890Z,2.38
2023-05-10T03:11:34.082Z,2.75
2023-05-10T03:14:51.053Z,2.42
2023-05-10T03:17:59.023Z,2.40
2023-05-10T03:21:07.248Z,1.95
2023-05-10T03:24:13.309Z,2.28
2023-05-10T03:27:17.520Z,2.40
2023-05-10T03:30:21.432Z,2.38
2023-05-10T03:33:24.345Z,2.30
2023-05-10T03:36:28.757Z,2.72
2023-05-10T03:39:32.366Z,2.33
2023-05-10T03:42:37.129Z,2.17
2023-05-10T03:45:39.885Z,2.30
2023-05-10T03:48:42.647Z,2.10
2023-05-10T03:51:46.925Z,2.30
2023-05-10T03:54:49.730Z,2.30
2023-05-10T03:57:54.674Z,2.35
2023-05-10T04:00:59.034Z,2.38
2023-05-10T04:04:01.824Z,2.40
2023-05-10T04:07:08.932Z,2.00
2023-05-10T04:10:12.007Z,2.40
2023-05-10T04:13:14.746Z,2.50
2023-05-10T04:16:17.629Z,2.20
2023-05-10T04:19:20.441Z,2.22
2023-05-10T04:22:24.576Z,2.40
2023-05-10T04:25:27.382Z,2.40
2023-05-10T04:28:30.505Z,2.10
2023-05-10T04:31:33.393Z,2.40
2023-05-10T04:34:36.153Z,2.22
2023-05-10T04:37:40.316Z,2.13
2023-05-10T04:40:43.044Z,2.10
2023-05-10T04:43:45.818Z,2.40
2023-05-10T04:46:48.627Z,2.17
2023-05-10T04:49:51.389Z,2.55
2023-05-10T04:52:55.517Z,2.38
2023-05-10T04:55:58.251Z,2.22
2023-05-10T04:59:01.040Z,2.20
2023-05-10T05:02:04.504Z,2.13
2023-05-10T05:05:08.366Z,2.20
2023-05-10T05:08:12.528Z,2.50
2023-05-10T05:11:15.355Z,2.08
2023-05-10T05:14:18.145Z,2.25
2023-05-10T05:17:20.891Z,2.33
2023-05-10T05:20:23.748Z,2.03
2023-05-10T05:23:27.891Z,2.08
2023-05-10T05:26:30.756Z,2.05
2023-05-10T05:29:33.508Z,2.10
2023-05-10T05:32:36.338Z,2.17
2023-05-10T05:35:39.512Z,2.10
2023-05-10T05:38:43.999Z,2.00
2023-05-10T05:41:47.173Z,2.22
2023-05-10T05:44:49.944Z,2.40
2023-05-10T05:47:52.755Z,2.13
2023-05-10T05:50:57.562Z,2.25
2023-05-10T05:54:01.653Z,2.10
2023-05-10T05:57:04.536Z,2.08
2023-05-10T06:00:08.701Z,2.17
2023-05-10T06:03:17.090Z,2.05
2023-05-10T06:06:19.842Z,2.35
2023-05-10T06:09:25.515Z,2.17
2023-05-10T06:12:28.278Z,1.92
2023-05-10T06:15:31.034Z,1.90
2023-05-10T06:18:34.102Z,2.00
2023-05-10T06:21:37.016Z,2.00
2023-05-10T06:24:41.169Z,2.22
2023-05-10T06:27:45.143Z,2.53
2023-05-10T06:30:50.057Z,2.08
2023-05-10T06:33:55.341Z,2.28
2023-05-10T06:36:59.476Z,2.10
2023-05-10T06:40:03.607Z,1.95
2023-05-10T06:43:06.597Z,2.15
2023-05-10T06:46:09.606Z,2.33
2023-05-10T06:49:12.421Z,2.05
2023-05-10T06:52:15.156Z,1.77
2023-05-10T06:55:19.569Z,2.20
2023-05-10T06:58:22.344Z,2.05
2023-05-10T07:01:25.448Z,2.28
2023-05-10T07:04:28.717Z,1.90
2023-05-10T07:07:31.531Z,2.47
2023-05-10T07:10:35.824Z,2.10
2023-05-10T07:13:40.070Z,2.03
2023-05-10T07:16:43.214Z,1.98
2023-05-10T07:19:46.120Z,2.10
2023-05-10T07:22:48.857Z,1.98
2023-05-10T07:25:54.353Z,2.25
2023-05-10T07:28:57.098Z,2.08
2023-05-10T07:31:59.883Z,2.20
2023-05-10T07:35:02.718Z,2.10
2023-05-10T07:38:05.558Z,1.95
2023-05-10T07:41:09.780Z,2.13
2023-05-10T07:44:12.544Z,2.00
2023-05-10T07:47:15.370Z,1.95
2023-05-10T07:50:18.433Z,2.10
2023-05-10T07:53:21.746Z,1.80
2023-05-10T07:56:28.301Z,2.15
2023-05-10T07:59:31.114Z,1.88
2023-05-10T08:02:34.986Z,1.98
2023-05-10T08:05:37.778Z,1.98
2023-05-10T08:08:40.593Z,2.30
2023-05-10T08:11:44.715Z,2.00
2023-05-10T08:14:47.428Z,1.90
2023-05-10T08:17:50.227Z,2.10
2023-05-10T08:20:53.029Z,1.77
2023-05-10T08:23:55.831Z,1.80
2023-05-10T08:26:59.946Z,2.08
2023-05-10T08:30:02.750Z,1.80
2023-05-10T08:33:06.060Z,2.20
2023-05-10T08:36:09.069Z,1.75
2023-05-10T08:39:23.006Z,1.83
2023-05-10T08:42:38.788Z,1.85
2023-05-10T08:45:43.075Z,2.08
2023-05-10T08:48:46.788Z,2.00
2023-05-10T08:51:53.728Z,1.77
2023-05-10T08:54:56.640Z,1.80
2023-05-10T08:58:01.252Z,2.10
2023-05-10T09:01:04.683Z,1.92
2023-05-10T09:04:07.585Z,1.90
2023-05-10T09:07:10.506Z,1.80
2023-05-10T09:10:15.205Z,2.13
2023-05-10T09:13:20.702Z,2.00
2023-05-10T09:16:24.359Z,1.98
2023-05-10T09:19:27.128Z,1.90
2023-05-10T09:22:29.886Z,1.70
2023-05-10T09:25:34.170Z,1.90
2023-05-10T09:28:53.212Z,2.00
2023-05-10T09:31:56.567Z,1.63
2023-05-10T09:34:59.335Z,1.73
2023-05-10T09:38:06.502Z,1.70
2023-05-10T09:41:18.396Z,2.13
2023-05-10T09:44:22.527Z,1.90
2023-05-10T09:47:26.010Z,2.40
2023-05-10T09:50:29.221Z,3.45
2023-05-10T09:53:32.122Z,2.28
2023-05-10T09:56:35.764Z,2.30
2023-05-10T09:59:44.974Z,2.20
2023-05-10T10:02:50.074Z,2.20
2023-05-10T10:05:54.207Z,2.13
2023-05-10T10:08:57.279Z,2.10
2023-05-10T10:12:01.045Z,2.08
2023-05-10T10:15:07.642Z,2.10
2023-05-10T10:18:15.524Z,2.03
2023-05-10T10:21:19.438Z,2.08
2023-05-10T10:24:22.185Z,2.22
2023-05-10T10:27:31.213Z,2.30
2023-05-10T10:30:41.155Z,2.00
2023-05-10T10:33:58.783Z,2.20
2023-05-10T10:37:07.472Z,2.00
2023-05-10T10:40:26.829Z,2.50
2023-05-10T10:43:31.378Z,2.05
2023-05-10T10:46:36.453Z,1.92
2023-05-10T10:49:50.670Z,2.20
2023-05-10T10:52:54.030Z,2.03
2023-05-10T10:56:07.844Z,2.22
2023-05-10T10:59:10.811Z,2.13
2023-05-10T11:02:35.079Z,2.30
2023-05-10T11:05:40.292Z,1.92
2023-05-10T11:08:45.932Z,2.05
2023-05-10T11:11:55.846Z,1.95
2023-05-10T11:14:59.693Z,2.35
2023-05-10T11:18:19.075Z,2.35
2023-05-10T11:21:21.965Z,2.00
2023-05-10T11:24:28.996Z,2.20
2023-05-10T11:27:34.078Z,2.25
2023-05-10T11:30:37.749Z,2.47
2023-05-10T11:33:46.834Z,2.10
2023-05-10T11:36:54.831Z,2.10
2023-05-10T11:39:57.622Z,2.00
2023-05-10T11:43:01.253Z,2.05
2023-05-10T11:46:04.152Z,2.30
2023-05-10T11:49:09.282Z,1.90
2023-05-10T11:52:13.037Z,2.40
2023-05-10T11:55:15.872Z,2.00
2023-05-10T11:58:22.283Z,2.17
2023-05-10T12:01:26.482Z,2.10
2023-05-10T12:04:31.296Z,1.92
2023-05-10T12:07:34.593Z,1.95
2023-05-10T12:10:37.597Z,1.77
2023-05-10T12:13:42.085Z,1.88
2023-05-10T12:16:45.865Z,1.92
2023-05-10T12:19:50.161Z,1.90
2023-05-10T12:22:54.795Z,2.25
2023-05-10T12:26:04.388Z,2.22
2023-05-10T12:29:17.863Z,1.95
2023-05-10T12:32:20.818Z,1.80
2023-05-10T12:35:25.328Z,1.92
2023-05-10T12:38:30.600Z,1.75
2023-05-10T12:41:33.420Z,1.77
2023-05-10T12:44:36.261Z,1.80
2023-05-10T12:47:42.181Z,1.80
2023-05-10T12:50:48.245Z,1.63
2023-05-10T12:53:50.989Z,1.95
2023-05-10T12:56:53.730Z,2.10
2023-05-10T12:59:56.823Z,2.03
2023-05-10T13:02:59.622Z,2.10
2023-05-10T13:06:03.765Z,2.65
2023-05-10T13:09:06.510Z,2.30
2023-05-10T13:12:10.283Z,2.40
2023-05-10T13:15:13.134Z,2.15
2023-05-10T13:18:16.210Z,2.47
2023-05-10T13:21:20.412Z,2.80
2023-05-10T13:24:23.247Z,3.50
2023-05-10T13:27:25.979Z,2.35
2023-05-10T13:30:29.758Z,2.38
2023-05-10T13:33:32.516Z,2.28
2023-05-10T13:36:36.724Z,2.53
2023-05-10T13:39:39.484Z,2.45
2023-05-10T13:42:42.314Z,2.58
2023-05-10T13:45:45.124Z,2.20
2023-05-10T13:48:47.929Z,2.13
2023-05-10T13:51:52.026Z,2.25
2023-05-10T13:54:55.983Z,2.45
2023-05-10T13:57:58.963Z,2.00
2023-05-10T14:01:01.705Z,2.40
2023-05-10T14:04:04.791Z,2.40
2023-05-10T14:07:08.932Z,2.10
2023-05-10T14:10:12.010Z,2.00
2023-05-10T14:13:14.723Z,2.40
2023-05-10T14:16:17.605Z,2.05
2023-05-10T14:19:20.472Z,1.77
2023-05-10T14:22:24.642Z,2.35
2023-05-10T14:25:27.941Z,2.00
2023-05-10T14:28:30.913Z,2.35
2023-05-10T14:31:33.799Z,2.15
2023-05-10T14:34:36.635Z,2.30
2023-05-10T14:37:40.759Z,2.15
2023-05-10T14:40:43.876Z,2.10
2023-05-10T14:43:46.904Z,2.08
2023-05-10T14:46:50.609Z,2.53
2023-05-10T14:49:53.393Z,2.10
2023-05-10T14:52:57.799Z,1.77
2023-05-10T14:56:02.095Z,2.45
2023-05-10T14:59:05.066Z,2.22
2023-05-10T15:02:09.207Z,2.38
2023-05-10T15:05:12.468Z,3.13
2023-05-10T15:08:17.097Z,1.92
2023-05-10T15:11:19.836Z,2.47
2023-05-10T15:14:22.693Z,2.20
2023-05-10T15:17:25.473Z,2.40
2023-05-10T15:20:28.361Z,2.38
2023-05-10T15:23:33.257Z,2.65
2023-05-10T15:26:36.160Z,1.90
2023-05-10T15:29:38.928Z,2.90
2023-05-10T15:32:42.001Z,1.80
2023-05-10T15:35:44.832Z,2.20
2023-05-10T15:38:48.965Z,2.20
2023-05-10T15:41:51.969Z,2.28
2023-05-10T15:44:54.745Z,2.58
2023-05-10T15:47:57.544Z,2.03
2023-05-10T15:51:00.408Z,2.15
2023-05-10T15:54:08.194Z,2.10
2023-05-10T15:57:11.760Z,2.03
2023-05-10T16:00:15.170Z,2.17
2023-05-10T16:03:18.021Z,2.30
2023-05-10T16:06:20.820Z,2.05
2023-05-10T16:09:24.924Z,1.88
2023-05-10T16:12:27.842Z,2.05
2023-05-10T16:15:30.757Z,2.38
2023-05-10T16:18:33.639Z,2.10
2023-05-10T16:21:36.510Z,2.30
2023-05-10T16:24:40.710Z,2.00
2023-05-10T16:27:44.387Z,2.45
2023-05-10T16:30:47.518Z,2.45
2023-05-10T16:33:51.076Z,2.08
2023-05-10T16:36:53.792Z,2.30
2023-05-10T16:39:57.952Z,2.00
2023-05-10T16:43:01.339Z,2.40
2023-05-10T16:46:04.139Z,2.10
2023-05-10T16:49:08.855Z,2.30
2023-05-10T16:52:11.657Z,2.17
2023-05-10T16:55:16.075Z,2.10
2023-05-10T16:58:18.993Z,2.38
2023-05-10T17:01:23.205Z,1.88
2023-05-10T17:04:27.177Z,2.17
2023-05-10T17:07:30.594Z,2.20
2023-05-10T17:10:34.766Z,2.33
2023-05-10T17:13:38.762Z,2.38
2023-05-10T17:16:42.358Z,2.55
2023-05-10T17:19:46.062Z,2.67
2023-05-10T17:22:49.585Z,2.42
2023-05-10T17:25:53.683Z,2.65
2023-05-10T17:28:56.957Z,2.50
2023-05-10T17:32:00.053Z,2.50
2023-05-10T17:35:03.705Z,2.33
2023-05-10T17:38:06.522Z,2.53
2023-05-10T17:41:10.633Z,2.05
2023-05-10T17:44:13.986Z,2.55
2023-05-10T17:47:16.736Z,2.47
2023-05-10T17:50:19.580Z,2.30
2023-05-10T17:53:22.384Z,2.45
2023-05-10T17:56:27.057Z,2.42
2023-05-10T17:59:29.844Z,2.40
2023-05-10T18:02:32.661Z,2.60
2023-05-10T18:05:37.573Z,2.50
2023-05-10T18:08:40.373Z,2.17
2023-05-10T18:11:44.547Z,2.42
2023-05-10T18:14:47.310Z,2.60
2023-05-10T18:17:50.719Z,2.95
2023-05-10T18:20:56.681Z,2.50
2023-05-10T18:23:59.408Z,2.83
2023-05-10T18:27:03.964Z,2.60
2023-05-10T18:30:10.066Z,2.53
2023-05-10T18:33:13.183Z,2.40
2023-05-10T18:36:16.070Z,2.65
2023-05-10T18:39:19.058Z,2.40
2023-05-10T18:42:23.347Z,2.00
2023-05-10T18:45:26.193Z,2.70
2023-05-10T18:48:28.985Z,2.58
2023-05-10T18:51:31.809Z,2.60
2023-05-10T18:54:34.900Z,2.35
2023-05-10T18:57:41.612Z,2.03
2023-05-10T19:00:44.641Z,2.20
2023-05-10T19:03:47.815Z,2.33
2023-05-10T19:06:50.624Z,2.53
2023-05-10T19:09:53.607Z,1.95
2023-05-10T19:12:58.060Z,2.60
2023-05-10T19:16:05.901Z,2.13
2023-05-10T19:19:09.598Z,2.30
2023-05-10T19:22:12.653Z,2.10
2023-05-10T19:25:16.816Z,1.92
2023-05-10T19:28:21.213Z,2.10
2023-05-10T19:31:24.618Z,2.30
2023-05-10T19:34:28.240Z,2.58
2023-05-10T19:37:31.695Z,2.15
2023-05-10T19:40:34.477Z,2.17
2023-05-10T19:43:39.593Z,2.20
2023-05-10T19:46:42.469Z,2.70
2023-05-10T19:49:45.377Z,2.08
2023-05-10T19:52:49.137Z,2.42
2023-05-10T19:55:51.988Z,1.90
2023-05-10T19:58:56.222Z,2.70
2023-05-10T20:01:59.267Z,2.28
2023-05-10T20:05:02.026Z,2.33
2023-05-10T20:08:04.875Z,2.55
2023-05-10T20:11:07.811Z,2.00
2023-05-10T20:14:11.961Z,2.40
2023-05-10T20:17:14.744Z,1.75
2023-05-10T20:20:18.506Z,2.40
2023-05-10T20:23:21.516Z,2.25
2023-05-10T20:26:24.581Z,2.20
2023-05-10T20:29:28.700Z,2.33
2023-05-10T20:32:31.626Z,2.25
2023-05-10T20:35:34.459Z,2.22
2023-05-10T20:38:37.482Z,2.10
2023-05-10T20:41:40.454Z,2.30
2023-05-10T20:44:44.590Z,2.35
2023-05-10T20:47:47.461Z,2.05
2023-05-10T20:50:51.708Z,2.05
2023-05-10T20:53:54.492Z,2.30
2023-05-10T20:56:57.304Z,2.20
2023-05-10T21:00:01.591Z,2.30
2023-05-10T21:03:04.878Z,2.47
2023-05-10T21:06:07.694Z,2.55
2023-05-10T21:09:10.616Z,2.17
2023-05-10T21:12:14.269Z,2.30
2023-05-10T21:15:18.674Z,2.08
2023-05-10T21:18:21.991Z,2.30
2023-05-10T21:21:24.840Z,2.10
2023-05-10T21:24:27.579Z,2.22
2023-05-10T21:27:30.561Z,2.83
2023-05-10T21:30:34.908Z,2.80
2023-05-10T21:33:37.680Z,2.85
2023-05-10T21:36:40.507Z,3.33
2023-05-10T21:39:43.548Z,2.45
2023-05-10T21:42:49.292Z,2.83
2023-05-10T21:45:53.560Z,2.92
2023-05-10T21:48:57.359Z,3.13
2023-05-10T21:52:00.129Z,3.35
2023-05-10T21:55:03.279Z,3.53
2023-05-10T21:58:06.168Z,3.28
2023-05-10T22:01:10.287Z,3.30
2023-05-10T22:04:13.159Z,3.20
2023-05-10T22:07:16.945Z,3.90
2023-05-10T22:10:20.225Z,3.38
2023-05-10T22:13:23.283Z,3.63
2023-05-10T22:16:27.606Z,3.47
2023-05-10T22:19:30.560Z,3.28
2023-05-10T22:22:33.548Z,3.60
2023-05-10T22:25:36.332Z,3.97
2023-05-10T22:28:39.415Z,3.58
2023-05-10T22:31:43.512Z,3.38
2023-05-10T22:34:46.294Z,3.28
2023-05-10T22:37:49.057Z,3.00
2023-05-10T22:40:51.792Z,3.42
2023-05-10T22:43:54.755Z,3.38
2023-05-10T22:46:58.911Z,3.58
2023-05-10T22:50:03.437Z,3.08
2023-05-10T22:53:06.661Z,3.42
2023-05-10T22:56:09.562Z,3.47
2023-05-10T22:59:12.465Z,2.92
2023-05-10T23:02:18.040Z,3.38
2023-05-10T23:05:21.176Z,3.00
2023-05-10T23:08:23.980Z,3.28
2023-05-10T23:11:26.871Z,3.47
2023-05-10T23:14:29.600Z,3.08
2023-05-10T23:17:33.761Z,3.25
2023-05-10T23:20:36.736Z,3.40
2023-05-10T23:23:39.516Z,3.05
2023-05-10T23:26:43.540Z,2.80
2023-05-10T23:29:46.265Z,3.13
2023-05-10T23:32:50.480Z,3.10
2023-05-10T23:35:53.302Z,3.20
2023-05-10T23:38:56.026Z,2.67
2023-05-10T23:41:58.798Z,3.10
2023-05-10T23:45:01.678Z,2.78
2023-05-10T23:48:06.081Z,3.20
2023-05-10T23:51:08.975Z,2.60
2023-05-10T23:54:12.267Z,2.78
2023-05-10T23:57:15.009Z,3.05
